Terminal Aerodrome Forecast
Issued by NWS Key West, FL

Home | Current Version | Previous Version | Text Only | Print | Product List | Glossary On
Versions: 1 2 3 4 5 6 7 8 9 10 11 12 13 14 15 16 17 18 19 20 21 22 23 24 25 26 27 28 29 30 31 32 33 34 35 36 37 38 39 40
000
FTUS42 KKEY 271142
TAFEYW
TAF
KEYW 271142Z 2712/2812 25011KT P6SM SCT020 SCT100
     FM271800 24012G20KT P6SM SCT020 SCT050 BKN100
     FM272200 28014G23KT P6SM VCSH SCT015 BKN050 OVC100
      TEMPO 2722/2802 3SM SHRA BKN015
     FM280200 33015G23KT P6SM SCT025 BKN050
     FM280800 35013G22KT P6SM FEW030=

USA.gov is the U.S. government's official web portal to all federal, state and local government web resources and services.